sensor_id;sensor_type;location;lat;lon;timestamp;temperature;humidity
55771;DHT22;41687;-33.234;-60.334;2023-03-29T00:00:02;23.90;68.80
55771;DHT22;41687;-33.234;-60.334;2023-03-29T00:02:41;23.80;68.60
55771;DHT22;41687;-33.234;-60.334;2023-03-29T00:05:09;23.70;68.50
55771;DHT22;41687;-33.234;-60.334;2023-03-29T00:07:37;23.80;68.60
55771;DHT22;41687;-33.234;-60.334;2023-03-29T00:10:07;23.70;68.40
55771;DHT22;41687;-33.234;-60.334;2023-03-29T00:12:38;23.60;68.80
55771;DHT22;41687;-33.234;-60.334;2023-03-29T00:15:07;23.70;68.60
55771;DHT22;41687;-33.234;-60.334;2023-03-29T00:17:34;23.70;68.90
55771;DHT22;41687;-33.234;-60.334;2023-03-29T00:20:02;23.70;68.60
55771;DHT22;41687;-33.234;-60.334;2023-03-29T00:22:32;23.70;68.90
55771;DHT22;41687;-33.234;-60.334;2023-03-29T00:25:00;23.60;69.40
55771;DHT22;41687;-33.234;-60.334;2023-03-29T00:27:27;23.40;70.50
55771;DHT22;41687;-33.234;-60.334;2023-03-29T00:29:55;23.20;70.10
55771;DHT22;41687;-33.234;-60.334;2023-03-29T00:32:24;23.20;70.00
55771;DHT22;41687;-33.234;-60.334;2023-03-29T00:34:51;23.30;70.10
55771;DHT22;41687;-33.234;-60.334;2023-03-29T00:37:21;23.20;70.10
55771;DHT22;41687;-33.234;-60.334;2023-03-29T00:39:53;23.20;69.80
55771;DHT22;41687;-33.234;-60.334;2023-03-29T00:42:20;23.20;70.20
55771;DHT22;41687;-33.234;-60.334;2023-03-29T00:45:12;23.20;70.30
55771;DHT22;41687;-33.234;-60.334;2023-03-29T00:47:57;23.00;70.80
55771;DHT22;41687;-33.234;-60.334;2023-03-29T00:50:44;23.00;70.90
55771;DHT22;41687;-33.234;-60.334;2023-03-29T00:53:45;23.00;70.80
55771;DHT22;41687;-33.234;-60.334;2023-03-29T00:56:17;22.90;70.80
55771;DHT22;41687;-33.234;-60.334;2023-03-29T00:58:56;23.00;70.80
55771;DHT22;41687;-33.234;-60.334;2023-03-29T01:01:49;22.90;70.80
55771;DHT22;41687;-33.234;-60.334;2023-03-29T01:04:31;22.80;71.80
55771;DHT22;41687;-33.234;-60.334;2023-03-29T01:07:04;22.70;71.60
55771;DHT22;41687;-33.234;-60.334;2023-03-29T01:09:35;22.80;71.30
55771;DHT22;41687;-33.234;-60.334;2023-03-29T01:12:10;22.70;71.90
55771;DHT22;41687;-33.234;-60.334;2023-03-29T01:14:58;22.60;72.30
55771;DHT22;41687;-33.234;-60.334;2023-03-29T01:17:29;22.60;72.10
55771;DHT22;41687;-33.234;-60.334;2023-03-29T01:28:18;22.50;72.30
55771;DHT22;41687;-33.234;-60.334;2023-03-29T01:30:55;22.50;71.80
55771;DHT22;41687;-33.234;-60.334;2023-03-29T01:33:31;22.40;71.80
55771;DHT22;41687;-33.234;-60.334;2023-03-29T01:36:10;22.40;72.00
55771;DHT22;41687;-33.234;-60.334;2023-03-29T01:41:09;22.40;72.40
55771;DHT22;41687;-33.234;-60.334;2023-03-29T01:46:30;22.40;72.20
55771;DHT22;41687;-33.234;-60.334;2023-03-29T01:49:12;22.40;72.00
55771;DHT22;41687;-33.234;-60.334;2023-03-29T01:51:59;22.30;72.80
55771;DHT22;41687;-33.234;-60.334;2023-03-29T01:54:38;22.20;73.00
55771;DHT22;41687;-33.234;-60.334;2023-03-29T01:57:09;22.20;73.10
55771;DHT22;41687;-33.234;-60.334;2023-03-29T01:59:41;22.10;73.70
55771;DHT22;41687;-33.234;-60.334;2023-03-29T02:02:12;22.20;74.00
55771;DHT22;41687;-33.234;-60.334;2023-03-29T02:04:45;22.10;73.70
55771;DHT22;41687;-33.234;-60.334;2023-03-29T02:07:23;22.10;74.10
55771;DHT22;41687;-33.234;-60.334;2023-03-29T02:09:53;21.90;74.80
55771;DHT22;41687;-33.234;-60.334;2023-03-29T02:12:26;22.00;75.10
55771;DHT22;41687;-33.234;-60.334;2023-03-29T02:14:56;22.10;74.20
55771;DHT22;41687;-33.234;-60.334;2023-03-29T02:17:26;22.10;74.50
55771;DHT22;41687;-33.234;-60.334;2023-03-29T02:20:05;22.00;75.30
55771;DHT22;41687;-33.234;-60.334;2023-03-29T02:25:22;22.10;75.10
55771;DHT22;41687;-33.234;-60.334;2023-03-29T02:27:50;22.00;74.20
55771;DHT22;41687;-33.234;-60.334;2023-03-29T02:30:20;22.00;74.70
55771;DHT22;41687;-33.234;-60.334;2023-03-29T02:32:53;22.10;74.60
55771;DHT22;41687;-33.234;-60.334;2023-03-29T02:35:33;22.10;74.20
55771;DHT22;41687;-33.234;-60.334;2023-03-29T02:38:08;22.10;74.70
55771;DHT22;41687;-33.234;-60.334;2023-03-29T02:40:41;21.90;75.50
55771;DHT22;41687;-33.234;-60.334;2023-03-29T02:43:10;21.90;75.60
55771;DHT22;41687;-33.234;-60.334;2023-03-29T02:45:40;21.90;74.70
55771;DHT22;41687;-33.234;-60.334;2023-03-29T02:48:11;21.90;75.10
55771;DHT22;41687;-33.234;-60.334;2023-03-29T02:50:43;21.80;75.70
55771;DHT22;41687;-33.234;-60.334;2023-03-29T02:53:15;21.80;76.20
55771;DHT22;41687;-33.234;-60.334;2023-03-29T02:55:46;21.70;76.10
55771;DHT22;41687;-33.234;-60.334;2023-03-29T02:58:13;21.80;75.80
55771;DHT22;41687;-33.234;-60.334;2023-03-29T03:00:47;21.70;76.60
55771;DHT22;41687;-33.234;-60.334;2023-03-29T03:03:15;21.60;76.80
55771;DHT22;41687;-33.234;-60.334;2023-03-29T03:05:45;21.60;76.80
55771;DHT22;41687;-33.234;-60.334;2023-03-29T03:08:13;21.70;76.40
55771;DHT22;41687;-33.234;-60.334;2023-03-29T03:10:41;21.60;77.10
55771;DHT22;41687;-33.234;-60.334;2023-03-29T03:13:09;21.50;76.80
55771;DHT22;41687;-33.234;-60.334;2023-03-29T03:15:37;21.60;77.10
55771;DHT22;41687;-33.234;-60.334;2023-03-29T03:18:09;21.50;77.40
55771;DHT22;41687;-33.234;-60.334;2023-03-29T03:20:37;21.60;76.90
55771;DHT22;41687;-33.234;-60.334;2023-03-29T03:23:06;21.50;77.90
55771;DHT22;41687;-33.234;-60.334;2023-03-29T03:25:35;21.40;78.00
55771;DHT22;41687;-33.234;-60.334;2023-03-29T03:28:03;21.40;77.60
55771;DHT22;41687;-33.234;-60.334;2023-03-29T03:30:32;21.40;78.70
55771;DHT22;41687;-33.234;-60.334;2023-03-29T03:33:20;21.40;78.70
55771;DHT22;41687;-33.234;-60.334;2023-03-29T03:35:54;21.30;79.60
55771;DHT22;41687;-33.234;-60.334;2023-03-29T03:38:29;21.30;79.40
55771;DHT22;41687;-33.234;-60.334;2023-03-29T03:41:00;21.30;78.90
55771;DHT22;41687;-33.234;-60.334;2023-03-29T03:43:32;21.20;79.90
55771;DHT22;41687;-33.234;-60.334;2023-03-29T03:46:01;21.10;80.40
55771;DHT22;41687;-33.234;-60.334;2023-03-29T03:48:29;21.10;81.10
55771;DHT22;41687;-33.234;-60.334;2023-03-29T03:51:19;21.10;80.70
55771;DHT22;41687;-33.234;-60.334;2023-03-29T03:53:49;21.10;80.00
55771;DHT22;41687;-33.234;-60.334;2023-03-29T03:56:37;21.20;80.80
55771;DHT22;41687;-33.234;-60.334;2023-03-29T03:59:16;21.10;81.20
55771;DHT22;41687;-33.234;-60.334;2023-03-29T04:01:57;21.10;81.40
55771;DHT22;41687;-33.234;-60.334;2023-03-29T04:04:25;21.00;81.00
55771;DHT22;41687;-33.234;-60.334;2023-03-29T04:07:08;21.10;81.30
55771;DHT22;41687;-33.234;-60.334;2023-03-29T04:09:57;21.20;81.00
55771;DHT22;41687;-33.234;-60.334;2023-03-29T04:12:48;21.10;81.80
55771;DHT22;41687;-33.234;-60.334;2023-03-29T04:15:16;21.10;81.40
55771;DHT22;41687;-33.234;-60.334;2023-03-29T04:17:57;21.10;81.80
55771;DHT22;41687;-33.234;-60.334;2023-03-29T04:20:40;21.10;81.70
55771;DHT22;41687;-33.234;-60.334;2023-03-29T04:23:08;21.10;81.60
55771;DHT22;41687;-33.234;-60.334;2023-03-29T04:25:36;21.10;83.00
55771;DHT22;41687;-33.234;-60.334;2023-03-29T04:28:24;21.10;82.80
55771;DHT22;41687;-33.234;-60.334;2023-03-29T04:31:13;21.10;82.40
55771;DHT22;41687;-33.234;-60.334;2023-03-29T04:34:04;21.00;83.50
55771;DHT22;41687;-33.234;-60.334;2023-03-29T04:36:32;21.10;82.70
55771;DHT22;41687;-33.234;-60.334;2023-03-29T04:38:59;21.10;82.20
55771;DHT22;41687;-33.234;-60.334;2023-03-29T04:41:28;21.10;82.70
55771;DHT22;41687;-33.234;-60.334;2023-03-29T04:44:03;21.10;82.60
55771;DHT22;41687;-33.234;-60.334;2023-03-29T04:46:31;21.10;82.50
55771;DHT22;41687;-33.234;-60.334;2023-03-29T04:49:09;21.00;83.10
55771;DHT22;41687;-33.234;-60.334;2023-03-29T04:51:40;21.00;82.90
55771;DHT22;41687;-33.234;-60.334;2023-03-29T04:54:09;21.10;83.20
55771;DHT22;41687;-33.234;-60.334;2023-03-29T04:56:55;21.10;82.40
55771;DHT22;41687;-33.234;-60.334;2023-03-29T04:59:41;21.10;84.10
55771;DHT22;41687;-33.234;-60.334;2023-03-29T05:02:27;21.10;82.40
55771;DHT22;41687;-33.234;-60.334;2023-03-29T05:04:58;21.10;83.30
55771;DHT22;41687;-33.234;-60.334;2023-03-29T05:07:26;21.20;83.30
55771;DHT22;41687;-33.234;-60.334;2023-03-29T05:09:54;21.20;82.60
55771;DHT22;41687;-33.234;-60.334;2023-03-29T05:12:22;21.20;82.50
55771;DHT22;41687;-33.234;-60.334;2023-03-29T05:14:54;21.30;82.20
55771;DHT22;41687;-33.234;-60.334;2023-03-29T05:17:25;21.30;82.40
55771;DHT22;41687;-33.234;-60.334;2023-03-29T05:19:56;21.30;82.50
55771;DHT22;41687;-33.234;-60.334;2023-03-29T05:22:25;21.30;82.30
55771;DHT22;41687;-33.234;-60.334;2023-03-29T05:24:55;21.30;82.70
55771;DHT22;41687;-33.234;-60.334;2023-03-29T05:27:23;21.40;82.30
55771;DHT22;41687;-33.234;-60.334;2023-03-29T05:30:02;21.40;82.50
55771;DHT22;41687;-33.234;-60.334;2023-03-29T05:32:50;21.40;82.50
55771;DHT22;41687;-33.234;-60.334;2023-03-29T05:35:23;21.50;82.40
55771;DHT22;41687;-33.234;-60.334;2023-03-29T05:37:53;21.50;82.40
55771;DHT22;41687;-33.234;-60.334;2023-03-29T05:40:22;21.50;82.30
55771;DHT22;41687;-33.234;-60.334;2023-03-29T05:43:12;21.60;82.50
55771;DHT22;41687;-33.234;-60.334;2023-03-29T05:45:40;21.60;82.40
55771;DHT22;41687;-33.234;-60.334;2023-03-29T05:48:07;21.60;82.40
55771;DHT22;41687;-33.234;-60.334;2023-03-29T05:50:39;21.60;82.50
55771;DHT22;41687;-33.234;-60.334;2023-03-29T05:53:07;21.50;82.50
55771;DHT22;41687;-33.234;-60.334;2023-03-29T05:55:35;21.50;83.00
55771;DHT22;41687;-33.234;-60.334;2023-03-29T05:58:03;21.40;83.40
55771;DHT22;41687;-33.234;-60.334;2023-03-29T06:00:34;21.30;83.30
55771;DHT22;41687;-33.234;-60.334;2023-03-29T06:03:22;21.30;83.50
55771;DHT22;41687;-33.234;-60.334;2023-03-29T06:05:58;21.30;83.30
55771;DHT22;41687;-33.234;-60.334;2023-03-29T06:08:29;21.40;82.80
55771;DHT22;41687;-33.234;-60.334;2023-03-29T06:11:26;21.40;82.60
55771;DHT22;41687;-33.234;-60.334;2023-03-29T06:14:00;21.50;82.80
55771;DHT22;41687;-33.234;-60.334;2023-03-29T06:16:31;21.50;82.80
55771;DHT22;41687;-33.234;-60.334;2023-03-29T06:18:59;21.50;82.80
55771;DHT22;41687;-33.234;-60.334;2023-03-29T06:21:29;21.50;82.70
55771;DHT22;41687;-33.234;-60.334;2023-03-29T06:23:58;21.50;82.80
55771;DHT22;41687;-33.234;-60.334;2023-03-29T06:26:29;21.50;82.70
55771;DHT22;41687;-33.234;-60.334;2023-03-29T06:28:57;21.50;82.70
55771;DHT22;41687;-33.234;-60.334;2023-03-29T06:31:25;21.50;82.80
55771;DHT22;41687;-33.234;-60.334;2023-03-29T06:33:53;21.50;82.80
55771;DHT22;41687;-33.234;-60.334;2023-03-29T06:36:30;21.50;83.20
55771;DHT22;41687;-33.234;-60.334;2023-03-29T06:39:00;21.50;82.90
55771;DHT22;41687;-33.234;-60.334;2023-03-29T06:41:47;21.50;83.10
55771;DHT22;41687;-33.234;-60.334;2023-03-29T06:44:44;21.50;83.00
55771;DHT22;41687;-33.234;-60.334;2023-03-29T06:47:18;21.50;83.10
55771;DHT22;41687;-33.234;-60.334;2023-03-29T06:49:47;21.60;82.90
55771;DHT22;41687;-33.234;-60.334;2023-03-29T06:52:35;21.60;82.70
55771;DHT22;41687;-33.234;-60.334;2023-03-29T06:55:04;21.60;82.40
55771;DHT22;41687;-33.234;-60.334;2023-03-29T06:57:34;21.60;82.50
55771;DHT22;41687;-33.234;-60.334;2023-03-29T07:00:03;21.70;82.70
55771;DHT22;41687;-33.234;-60.334;2023-03-29T07:03:09;21.70;82.70
55771;DHT22;41687;-33.234;-60.334;2023-03-29T07:05:41;21.70;82.50
55771;DHT22;41687;-33.234;-60.334;2023-03-29T07:08:14;21.70;82.70
55771;DHT22;41687;-33.234;-60.334;2023-03-29T07:10:58;21.60;82.70
55771;DHT22;41687;-33.234;-60.334;2023-03-29T07:13:45;21.60;82.90
55771;DHT22;41687;-33.234;-60.334;2023-03-29T07:16:18;21.60;82.70
55771;DHT22;41687;-33.234;-60.334;2023-03-29T07:19:11;21.70;82.80
55771;DHT22;41687;-33.234;-60.334;2023-03-29T07:21:51;21.60;82.70
55771;DHT22;41687;-33.234;-60.334;2023-03-29T07:24:24;21.60;82.90
55771;DHT22;41687;-33.234;-60.334;2023-03-29T07:26:52;21.60;83.00
55771;DHT22;41687;-33.234;-60.334;2023-03-29T07:29:20;21.60;82.80
55771;DHT22;41687;-33.234;-60.334;2023-03-29T07:31:49;21.70;83.00
55771;DHT22;41687;-33.234;-60.334;2023-03-29T07:34:37;21.70;82.90
55771;DHT22;41687;-33.234;-60.334;2023-03-29T07:37:07;21.70;82.80
55771;DHT22;41687;-33.234;-60.334;2023-03-29T07:39:35;21.70;82.60
55771;DHT22;41687;-33.234;-60.334;2023-03-29T07:42:22;21.60;82.80
55771;DHT22;41687;-33.234;-60.334;2023-03-29T07:44:51;21.70;82.70
55771;DHT22;41687;-33.234;-60.334;2023-03-29T07:47:20;21.70;82.40
55771;DHT22;41687;-33.234;-60.334;2023-03-29T07:49:47;21.70;82.40
55771;DHT22;41687;-33.234;-60.334;2023-03-29T07:52:15;21.70;82.30
55771;DHT22;41687;-33.234;-60.334;2023-03-29T07:54:43;21.70;82.30
55771;DHT22;41687;-33.234;-60.334;2023-03-29T07:57:28;21.70;82.20
55771;DHT22;41687;-33.234;-60.334;2023-03-29T07:59:59;21.80;82.60
55771;DHT22;41687;-33.234;-60.334;2023-03-29T08:02:41;21.80;82.00
55771;DHT22;41687;-33.234;-60.334;2023-03-29T08:05:10;21.80;81.90
55771;DHT22;41687;-33.234;-60.334;2023-03-29T08:07:49;21.80;81.90
55771;DHT22;41687;-33.234;-60.334;2023-03-29T08:10:19;21.80;81.90
55771;DHT22;41687;-33.234;-60.334;2023-03-29T08:13:09;21.80;81.80
55771;DHT22;41687;-33.234;-60.334;2023-03-29T08:15:45;21.80;81.70
55771;DHT22;41687;-33.234;-60.334;2023-03-29T08:18:30;21.80;82.10
55771;DHT22;41687;-33.234;-60.334;2023-03-29T08:20:58;21.80;82.20
55771;DHT22;41687;-33.234;-60.334;2023-03-29T08:23:25;21.70;82.50
55771;DHT22;41687;-33.234;-60.334;2023-03-29T08:26:12;21.70;82.90
55771;DHT22;41687;-33.234;-60.334;2023-03-29T08:28:42;21.70;83.10
55771;DHT22;41687;-33.234;-60.334;2023-03-29T08:31:11;21.70;83.20
55771;DHT22;41687;-33.234;-60.334;2023-03-29T08:33:41;21.70;83.60
55771;DHT22;41687;-33.234;-60.334;2023-03-29T08:36:36;21.70;83.90
55771;DHT22;41687;-33.234;-60.334;2023-03-29T08:39:12;21.60;84.50
55771;DHT22;41687;-33.234;-60.334;2023-03-29T08:50:13;21.60;86.10
55771;DHT22;41687;-33.234;-60.334;2023-03-29T08:52:58;21.60;85.30
55771;DHT22;41687;-33.234;-60.334;2023-03-29T08:55:56;21.60;86.40
55771;DHT22;41687;-33.234;-60.334;2023-03-29T08:58:44;21.60;85.50
55771;DHT22;41687;-33.234;-60.334;2023-03-29T09:01:14;21.60;85.20
55771;DHT22;41687;-33.234;-60.334;2023-03-29T09:06:42;21.70;85.40
55771;DHT22;41687;-33.234;-60.334;2023-03-29T09:09:29;21.70;85.50
55771;DHT22;41687;-33.234;-60.334;2023-03-29T09:15:03;21.80;85.80
55771;DHT22;41687;-33.234;-60.334;2023-03-29T09:26:08;21.40;87.30
55771;DHT22;41687;-33.234;-60.334;2023-03-29T09:31:28;21.30;88.50
55771;DHT22;41687;-33.234;-60.334;2023-03-29T09:37:02;21.10;89.90
55771;DHT22;41687;-33.234;-60.334;2023-03-29T09:39:30;21.10;90.50
55771;DHT22;41687;-33.234;-60.334;2023-03-29T09:42:08;21.10;89.90
55771;DHT22;41687;-33.234;-60.334;2023-03-29T09:44:50;21.20;90.30
55771;DHT22;41687;-33.234;-60.334;2023-03-29T09:47:33;21.20;90.60
55771;DHT22;41687;-33.234;-60.334;2023-03-29T09:52:45;21.40;90.60
55771;DHT22;41687;-33.234;-60.334;2023-03-29T09:55:19;21.40;90.30
55771;DHT22;41687;-33.234;-60.334;2023-03-29T09:58:22;21.40;90.10
55771;DHT22;41687;-33.234;-60.334;2023-03-29T10:00:56;21.20;90.70
55771;DHT22;41687;-33.234;-60.334;2023-03-29T10:03:27;21.10;91.00
55771;DHT22;41687;-33.234;-60.334;2023-03-29T10:06:10;21.10;91.10
55771;DHT22;41687;-33.234;-60.334;2023-03-29T10:08:49;21.00;91.60
55771;DHT22;41687;-33.234;-60.334;2023-03-29T10:11:35;21.00;91.90
55771;DHT22;41687;-33.234;-60.334;2023-03-29T10:14:18;21.00;92.20
55771;DHT22;41687;-33.234;-60.334;2023-03-29T10:16:54;21.10;91.80
55771;DHT22;41687;-33.234;-60.334;2023-03-29T10:22:06;21.10;91.40
55771;DHT22;41687;-33.234;-60.334;2023-03-29T10:24:34;21.10;91.40
55771;DHT22;41687;-33.234;-60.334;2023-03-29T10:27:09;21.10;90.70
55771;DHT22;41687;-33.234;-60.334;2023-03-29T10:29:41;21.10;90.80
55771;DHT22;41687;-33.234;-60.334;2023-03-29T10:34:51;21.30;90.50
55771;DHT22;41687;-33.234;-60.334;2023-03-29T10:37:20;21.30;90.10
55771;DHT22;41687;-33.234;-60.334;2023-03-29T10:39:49;21.40;90.10
55771;DHT22;41687;-33.234;-60.334;2023-03-29T10:42:19;21.50;90.10
55771;DHT22;41687;-33.234;-60.334;2023-03-29T10:44:57;21.30;90.30
55771;DHT22;41687;-33.234;-60.334;2023-03-29T10:47:25;21.30;90.10
55771;DHT22;41687;-33.234;-60.334;2023-03-29T10:49:57;21.30;89.80
55771;DHT22;41687;-33.234;-60.334;2023-03-29T10:52:25;21.20;89.80
55771;DHT22;41687;-33.234;-60.334;2023-03-29T10:54:56;21.30;89.80
55771;DHT22;41687;-33.234;-60.334;2023-03-29T11:06:10;23.40;81.20
55771;DHT22;41687;-33.234;-60.334;2023-03-29T11:09:01;24.00;79.60
55771;DHT22;41687;-33.234;-60.334;2023-03-29T11:14:19;26.30;73.40
55771;DHT22;41687;-33.234;-60.334;2023-03-29T11:17:22;27.00;73.40
55771;DHT22;41687;-33.234;-60.334;2023-03-29T11:22:48;27.80;69.40
55771;DHT22;41687;-33.234;-60.334;2023-03-29T11:25:31;28.00;67.70
55771;DHT22;41687;-33.234;-60.334;2023-03-29T11:36:19;27.80;68.60
55771;DHT22;41687;-33.234;-60.334;2023-03-29T11:41:29;27.50;69.00
55771;DHT22;41687;-33.234;-60.334;2023-03-29T11:44:27;27.60;69.40
55771;DHT22;41687;-33.234;-60.334;2023-03-29T11:47:06;27.80;68.50
55771;DHT22;41687;-33.234;-60.334;2023-03-29T11:50:12;27.90;69.20
55771;DHT22;41687;-33.234;-60.334;2023-03-29T11:52:41;27.90;69.20
55771;DHT22;41687;-33.234;-60.334;2023-03-29T11:55:30;28.10;67.80
55771;DHT22;41687;-33.234;-60.334;2023-03-29T11:58:25;28.00;67.60
55771;DHT22;41687;-33.234;-60.334;2023-03-29T12:01:00;28.50;66.60
55771;DHT22;41687;-33.234;-60.334;2023-03-29T12:03:49;28.40;67.00
55771;DHT22;41687;-33.234;-60.334;2023-03-29T12:09:37;29.20;67.00
55771;DHT22;41687;-33.234;-60.334;2023-03-29T12:17:31;27.10;70.00
55771;DHT22;41687;-33.234;-60.334;2023-03-29T12:22:44;25.80;72.90
55771;DHT22;41687;-33.234;-60.334;2023-03-29T12:25:16;25.40;74.60
55771;DHT22;41687;-33.234;-60.334;2023-03-29T12:31:12;25.00;75.70
55771;DHT22;41687;-33.234;-60.334;2023-03-29T12:39:47;24.80;78.40
55771;DHT22;41687;-33.234;-60.334;2023-03-29T12:42:46;24.60;78.10
55771;DHT22;41687;-33.234;-60.334;2023-03-29T12:45:42;24.50;78.60
55771;DHT22;41687;-33.234;-60.334;2023-03-29T12:48:17;24.50;79.20
55771;DHT22;41687;-33.234;-60.334;2023-03-29T12:51:11;24.30;79.00
55771;DHT22;41687;-33.234;-60.334;2023-03-29T12:56:06;24.20;79.20
55771;DHT22;41687;-33.234;-60.334;2023-03-29T12:59:14;24.20;79.10
55771;DHT22;41687;-33.234;-60.334;2023-03-29T13:02:00;24.20;79.80
55771;DHT22;41687;-33.234;-60.334;2023-03-29T13:04:57;24.20;79.80
55771;DHT22;41687;-33.234;-60.334;2023-03-29T13:07:32;24.30;80.50
55771;DHT22;41687;-33.234;-60.334;2023-03-29T13:13:29;24.50;80.40
55771;DHT22;41687;-33.234;-60.334;2023-03-29T13:16:16;24.50;80.70
55771;DHT22;41687;-33.234;-60.334;2023-03-29T13:27:04;25.20;81.90
55771;DHT22;41687;-33.234;-60.334;2023-03-29T13:30:02;25.80;80.70
55771;DHT22;41687;-33.234;-60.334;2023-03-29T13:53:52;26.60;76.70
55771;DHT22;41687;-33.234;-60.334;2023-03-29T13:56:30;26.50;76.40
55771;DHT22;41687;-33.234;-60.334;2023-03-29T13:59:19;26.30;76.10
55771;DHT22;41687;-33.234;-60.334;2023-03-29T14:01:56;26.10;76.80
55771;DHT22;41687;-33.234;-60.334;2023-03-29T14:04:38;25.90;76.90
55771;DHT22;41687;-33.234;-60.334;2023-03-29T14:07:11;25.80;77.70
55771;DHT22;41687;-33.234;-60.334;2023-03-29T14:09:45;25.70;77.70
55771;DHT22;41687;-33.234;-60.334;2023-03-29T14:12:17;25.50;78.30
55771;DHT22;41687;-33.234;-60.334;2023-03-29T14:14:45;25.40;78.70
55771;DHT22;41687;-33.234;-60.334;2023-03-29T14:17:21;25.40;78.90
55771;DHT22;41687;-33.234;-60.334;2023-03-29T14:19:51;25.20;79.20
55771;DHT22;41687;-33.234;-60.334;2023-03-29T14:22:20;25.20;79.20
55771;DHT22;41687;-33.234;-60.334;2023-03-29T14:24:52;25.10;79.90
55771;DHT22;41687;-33.234;-60.334;2023-03-29T14:27:23;25.00;80.60
55771;DHT22;41687;-33.234;-60.334;2023-03-29T14:29:51;25.00;80.80
55771;DHT22;41687;-33.234;-60.334;2023-03-29T14:32:26;25.00;81.60
55771;DHT22;41687;-33.234;-60.334;2023-03-29T14:34:56;24.90;82.30
55771;DHT22;41687;-33.234;-60.334;2023-03-29T14:37:26;24.90;81.70
55771;DHT22;41687;-33.234;-60.334;2023-03-29T14:39:55;25.00;82.10
55771;DHT22;41687;-33.234;-60.334;2023-03-29T14:42:26;25.00;82.30
55771;DHT22;41687;-33.234;-60.334;2023-03-29T14:45:02;25.10;82.30
55771;DHT22;41687;-33.234;-60.334;2023-03-29T14:47:31;25.30;82.20
55771;DHT22;41687;-33.234;-60.334;2023-03-29T14:49:59;25.40;81.60
55771;DHT22;41687;-33.234;-60.334;2023-03-29T14:52:29;25.70;81.20
55771;DHT22;41687;-33.234;-60.334;2023-03-29T14:55:00;26.00;80.20
55771;DHT22;41687;-33.234;-60.334;2023-03-29T14:57:35;26.50;79.70
55771;DHT22;41687;-33.234;-60.334;2023-03-29T15:00:21;27.00;78.40
55771;DHT22;41687;-33.234;-60.334;2023-03-29T15:03:00;27.20;77.40
55771;DHT22;41687;-33.234;-60.334;2023-03-29T15:08:02;27.80;76.70
55771;DHT22;41687;-33.234;-60.334;2023-03-29T15:10:35;27.90;76.90
55771;DHT22;41687;-33.234;-60.334;2023-03-29T15:13:06;28.00;76.40
55771;DHT22;41687;-33.234;-60.334;2023-03-29T15:15:36;27.90;75.70
55771;DHT22;41687;-33.234;-60.334;2023-03-29T15:18:06;27.90;75.70
55771;DHT22;41687;-33.234;-60.334;2023-03-29T15:20:39;28.00;76.00
55771;DHT22;41687;-33.234;-60.334;2023-03-29T15:23:22;28.20;76.10
55771;DHT22;41687;-33.234;-60.334;2023-03-29T15:25:56;28.10;74.80
55771;DHT22;41687;-33.234;-60.334;2023-03-29T15:28:33;28.20;75.10
55771;DHT22;41687;-33.234;-60.334;2023-03-29T15:31:10;28.20;74.40
55771;DHT22;41687;-33.234;-60.334;2023-03-29T15:33:40;28.20;75.10
55771;DHT22;41687;-33.234;-60.334;2023-03-29T15:36:09;28.30;75.60
55771;DHT22;41687;-33.234;-60.334;2023-03-29T15:38:38;28.20;74.70
55771;DHT22;41687;-33.234;-60.334;2023-03-29T15:41:07;28.10;75.40
55771;DHT22;41687;-33.234;-60.334;2023-03-29T15:43:35;28.10;75.20
55771;DHT22;41687;-33.234;-60.334;2023-03-29T15:46:03;28.10;75.60
55771;DHT22;41687;-33.234;-60.334;2023-03-29T15:48:31;28.10;75.70
55771;DHT22;41687;-33.234;-60.334;2023-03-29T15:50:59;28.10;76.20
55771;DHT22;41687;-33.234;-60.334;2023-03-29T15:53:28;28.20;75.20
55771;DHT22;41687;-33.234;-60.334;2023-03-29T15:55:59;28.10;75.20
55771;DHT22;41687;-33.234;-60.334;2023-03-29T15:58:28;28.30;75.00
55771;DHT22;41687;-33.234;-60.334;2023-03-29T16:01:01;28.20;75.40
55771;DHT22;41687;-33.234;-60.334;2023-03-29T16:03:38;28.30;75.80
55771;DHT22;41687;-33.234;-60.334;2023-03-29T16:06:09;28.30;75.50
55771;DHT22;41687;-33.234;-60.334;2023-03-29T16:08:36;28.40;75.50
55771;DHT22;41687;-33.234;-60.334;2023-03-29T16:11:04;28.40;75.50
55771;DHT22;41687;-33.234;-60.334;2023-03-29T16:13:34;28.50;75.60
55771;DHT22;41687;-33.234;-60.334;2023-03-29T16:16:01;28.40;75.50
55771;DHT22;41687;-33.234;-60.334;2023-03-29T16:18:29;28.30;75.50
55771;DHT22;41687;-33.234;-60.334;2023-03-29T16:20:57;28.30;75.70
55771;DHT22;41687;-33.234;-60.334;2023-03-29T16:23:25;28.40;75.70
55771;DHT22;41687;-33.234;-60.334;2023-03-29T16:25:53;28.50;75.60
55771;DHT22;41687;-33.234;-60.334;2023-03-29T16:28:21;28.60;75.20
55771;DHT22;41687;-33.234;-60.334;2023-03-29T16:30:50;28.50;75.10
55771;DHT22;41687;-33.234;-60.334;2023-03-29T16:33:18;28.40;74.90
55771;DHT22;41687;-33.234;-60.334;2023-03-29T16:35:45;28.30;75.60
55771;DHT22;41687;-33.234;-60.334;2023-03-29T16:38:13;28.20;75.90
55771;DHT22;41687;-33.234;-60.334;2023-03-29T16:40:41;28.40;76.00
55771;DHT22;41687;-33.234;-60.334;2023-03-29T16:43:16;28.40;75.90
55771;DHT22;41687;-33.234;-60.334;2023-03-29T16:45:44;28.20;76.00
55771;DHT22;41687;-33.234;-60.334;2023-03-29T16:48:16;27.90;76.50
55771;DHT22;41687;-33.234;-60.334;2023-03-29T16:50:45;27.80;76.80
55771;DHT22;41687;-33.234;-60.334;2023-03-29T16:53:17;27.60;77.00
55771;DHT22;41687;-33.234;-60.334;2023-03-29T16:55:46;27.60;77.50
55771;DHT22;41687;-33.234;-60.334;2023-03-29T16:58:14;27.70;77.30
55771;DHT22;41687;-33.234;-60.334;2023-03-29T17:00:42;27.80;77.70
55771;DHT22;41687;-33.234;-60.334;2023-03-29T17:03:10;27.90;77.60
55771;DHT22;41687;-33.234;-60.334;2023-03-29T17:05:38;28.00;77.40
55771;DHT22;41687;-33.234;-60.334;2023-03-29T17:08:09;28.00;77.30
55771;DHT22;41687;-33.234;-60.334;2023-03-29T17:10:39;28.30;77.20
55771;DHT22;41687;-33.234;-60.334;2023-03-29T17:13:07;28.40;77.20
55771;DHT22;41687;-33.234;-60.334;2023-03-29T17:15:35;28.40;77.10
55771;DHT22;41687;-33.234;-60.334;2023-03-29T17:18:04;28.50;76.50
55771;DHT22;41687;-33.234;-60.334;2023-03-29T17:20:31;28.50;76.60
55771;DHT22;41687;-33.234;-60.334;2023-03-29T17:22:59;28.40;76.40
55771;DHT22;41687;-33.234;-60.334;2023-03-29T17:25:26;28.10;76.50
55771;DHT22;41687;-33.234;-60.334;2023-03-29T17:27:54;28.00;76.60
55771;DHT22;41687;-33.234;-60.334;2023-03-29T17:30:22;28.00;76.60
55771;DHT22;41687;-33.234;-60.334;2023-03-29T17:32:50;28.00;76.90
55771;DHT22;41687;-33.234;-60.334;2023-03-29T17:35:18;28.00;77.20
55771;DHT22;41687;-33.234;-60.334;2023-03-29T17:37:46;28.00;77.50
55771;DHT22;41687;-33.234;-60.334;2023-03-29T17:40:14;27.80;77.20
55771;DHT22;41687;-33.234;-60.334;2023-03-29T17:42:43;27.70;77.70
55771;DHT22;41687;-33.234;-60.334;2023-03-29T17:45:15;27.50;77.40
55771;DHT22;41687;-33.234;-60.334;2023-03-29T17:47:43;27.30;77.80